Time,TemperatureF,DewpointF,PressureIn,WindDirection,WindDirectionDegrees,WindSpeedMPH,WindSpeedGustMPH,Humidity,HourlyPrecipIn,Conditions,Clouds,dailyrainin,SoftwareType,DateUTC
2013-03-18 00:02:00,27.0,20.0,30.03,East,98,2.0,7.0,75,0.00,,,0.00,,2013-03-18 05:02:00,
2013-03-18 00:12:00,27.0,20.0,30.03,East,98,2.0,7.0,75,0.00,,,0.00,,2013-03-18 05:12:00,
2013-03-18 00:22:00,27.0,20.0,30.02,ESE,118,2.0,6.0,76,0.00,,,0.00,,2013-03-18 05:22:00,
2013-03-18 00:32:00,28.0,22.0,30.02,ENE,74,2.0,9.0,77,0.00,,,0.00,,2013-03-18 05:32:00,
2013-03-18 00:43:00,28.0,22.0,30.02,ENE,74,2.0,9.0,77,0.00,,,0.00,,2013-03-18 05:43:00,
2013-03-18 00:52:00,28.0,22.0,30.00,East,94,3.0,9.0,77,0.00,,,0.00,,2013-03-18 05:52:00,
2013-03-18 01:02:00,27.0,21.0,30.00,ESE,114,4.0,7.0,77,0.00,,,0.00,,2013-03-18 06:02:00,
2013-03-18 01:12:00,27.0,21.0,30.00,ESE,114,4.0,7.0,77,0.00,,,0.00,,2013-03-18 06:12:00,
2013-03-18 01:22:00,28.0,22.0,29.99,ESE,107,4.0,9.0,78,0.00,,,0.00,,2013-03-18 06:22:00,
2013-03-18 01:32:00,28.0,22.0,29.99,East,86,5.0,5.0,78,0.00,,,0.00,,2013-03-18 06:32:00,
2013-03-18 01:42:00,28.0,22.0,29.99,East,86,5.0,5.0,78,0.00,,,0.00,,2013-03-18 06:42:00,
2013-03-18 01:52:00,28.0,22.0,29.96,SE,128,3.0,7.0,78,0.00,,,0.00,,2013-03-18 06:52:00,
2013-03-18 02:02:00,28.0,22.0,29.96,East,96,3.0,5.0,77,0.00,,,0.00,,2013-03-18 07:02:00,
2013-03-18 02:12:00,28.0,22.0,29.96,East,96,3.0,5.0,77,0.00,,,0.00,,2013-03-18 07:12:00,
2013-03-18 02:22:00,27.0,21.0,29.96,ESE,113,2.0,10.0,77,0.00,,,0.00,,2013-03-18 07:22:00,
2013-03-18 02:32:00,27.0,21.0,29.96,ESE,114,6.0,6.0,77,0.00,,,0.00,,2013-03-18 07:32:00,
2013-03-18 02:42:00,27.0,21.0,29.96,ESE,114,6.0,6.0,77,0.00,,,0.00,,2013-03-18 07:42:00,
2013-03-18 02:52:00,27.0,21.0,29.94,ESE,122,3.0,4.0,78,0.00,,,0.00,,2013-03-18 07:52:00,
2013-03-18 03:02:00,27.0,21.0,29.94,SE,130,3.0,7.0,78,0.00,,,0.00,,2013-03-18 08:02:00,
2013-03-18 03:12:00,27.0,21.0,29.94,SE,130,3.0,7.0,78,0.00,,,0.00,,2013-03-18 08:12:00,
2013-03-18 03:22:00,27.0,21.0,29.93,SE,139,1.0,7.0,77,0.00,,,0.00,,2013-03-18 08:22:00,
2013-03-18 03:32:00,28.0,22.0,29.93,East,83,4.0,6.0,77,0.00,,,0.00,,2013-03-18 08:32:00,
2013-03-18 03:43:00,28.0,22.0,29.93,East,83,4.0,6.0,77,0.00,,,0.00,,2013-03-18 08:43:00,
2013-03-18 03:52:00,27.0,21.0,29.91,ESE,105,3.0,7.0,77,0.00,,,0.00,,2013-03-18 08:52:00,
2013-03-18 04:02:00,27.0,21.0,29.91,East,93,0.0,6.0,77,0.00,,,0.00,,2013-03-18 09:02:00,
2013-03-18 04:12:00,27.0,21.0,29.91,East,93,0.0,6.0,77,0.00,,,0.00,,2013-03-18 09:12:00,
2013-03-18 04:22:00,27.0,21.0,29.90,ESE,105,3.0,7.0,78,0.00,,,0.00,,2013-03-18 09:22:00,
2013-03-18 04:33:00,27.0,21.0,29.90,SE,131,5.0,6.0,79,0.00,,,0.00,,2013-03-18 09:33:00,
2013-03-18 04:43:00,27.0,21.0,29.90,SE,131,5.0,6.0,79,0.00,,,0.00,,2013-03-18 09:43:00,
2013-03-18 04:53:00,28.0,22.0,29.88,SE,126,3.0,4.0,79,0.00,,,0.00,,2013-03-18 09:53:00,
2013-03-18 05:03:00,28.0,22.0,29.88,East,79,0.0,4.0,79,0.00,,,0.00,,2013-03-18 10:03:00,
2013-03-18 05:12:00,28.0,22.0,29.88,East,79,0.0,4.0,79,0.00,,,0.00,,2013-03-18 10:12:00,
2013-03-18 05:23:00,28.0,23.0,29.86,East,84,4.0,4.0,80,0.00,,,0.00,,2013-03-18 10:23:00,
2013-03-18 05:33:00,28.0,23.0,29.86,ESE,107,3.0,8.0,80,0.00,,,0.00,,2013-03-18 10:33:00,
2013-03-18 05:42:00,28.0,23.0,29.86,ESE,107,3.0,8.0,80,0.00,,,0.00,,2013-03-18 10:42:00,
2013-03-18 05:53:00,28.0,23.0,29.85,ESE,114,6.0,6.0,80,0.00,,,0.00,,2013-03-18 10:53:00,
2013-03-18 06:03:00,28.0,23.0,29.85,East,84,4.0,10.0,80,0.00,,,0.00,,2013-03-18 11:03:00,
2013-03-18 06:12:00,28.0,23.0,29.85,East,84,4.0,10.0,80,0.00,,,0.00,,2013-03-18 11:12:00,
2013-03-18 06:22:00,28.0,23.0,29.83,ESE,115,3.0,6.0,80,0.00,,,0.00,,2013-03-18 11:22:00,
2013-03-18 06:32:00,29.0,24.0,29.83,East,88,1.0,8.0,80,0.00,,,0.00,,2013-03-18 11:32:00,
2013-03-18 06:42:00,29.0,24.0,29.83,East,88,1.0,8.0,80,0.00,,,0.00,,2013-03-18 11:42:00,
2013-03-18 06:52:00,29.0,24.0,29.82,ESE,104,3.0,7.0,81,0.00,,,0.00,,2013-03-18 11:52:00,
2013-03-18 07:02:00,29.0,24.0,29.82,East,92,3.0,6.0,81,0.00,,,0.00,,2013-03-18 12:02:00,
2013-03-18 07:12:00,29.0,24.0,29.82,East,92,3.0,6.0,81,0.00,,,0.00,,2013-03-18 12:12:00,
2013-03-18 07:22:00,29.0,24.0,29.82,SE,131,0.0,6.0,81,0.00,,,0.00,,2013-03-18 12:22:00,
2013-03-18 07:32:00,28.0,23.0,29.82,ENE,78,3.0,8.0,81,0.00,,,0.00,,2013-03-18 12:32:00,
2013-03-18 07:42:00,28.0,23.0,29.82,ENE,78,3.0,8.0,81,0.00,,,0.00,,2013-03-18 12:42:00,
2013-03-18 07:52:00,28.0,23.0,29.82,East,81,4.0,7.0,81,0.00,,,0.00,,2013-03-18 12:52:00,
2013-03-18 08:02:00,28.0,23.0,29.82,East,101,3.0,5.0,81,0.00,,,0.00,,2013-03-18 13:02:00,
2013-03-18 08:12:00,28.0,23.0,29.82,East,101,3.0,5.0,81,0.00,,,0.00,,2013-03-18 13:12:00,
2013-03-18 08:22:00,29.0,24.0,29.79,ESE,115,1.0,10.0,81,0.00,,,0.00,,2013-03-18 13:22:00,
2013-03-18 08:32:00,29.0,24.0,29.79,ENE,76,2.0,5.0,81,0.00,,,0.00,,2013-03-18 13:32:00,
2013-03-18 08:42:00,29.0,24.0,29.79,ENE,76,2.0,5.0,81,0.00,,,0.00,,2013-03-18 13:42:00,
2013-03-18 08:52:00,28.0,24.0,29.77,ESE,102,3.0,5.0,83,0.00,,,0.00,,2013-03-18 13:52:00,
2013-03-18 09:12:00,28.0,24.0,29.77,ENE,70,3.0,6.0,85,0.00,,,0.00,,2013-03-18 14:12:00,
2013-03-18 09:22:00,28.0,25.0,29.75,ESE,106,3.0,4.0,88,0.00,,,0.00,,2013-03-18 14:22:00,
2013-03-18 09:32:00,28.0,25.0,29.75,East,89,2.0,4.0,89,0.00,,,0.00,,2013-03-18 14:32:00,
2013-03-18 09:42:00,28.0,25.0,29.75,East,89,2.0,4.0,89,0.00,,,0.00,,2013-03-18 14:42:00,
2013-03-18 09:52:00,28.0,26.0,29.72,SE,128,3.0,5.0,91,0.01,,,0.01,,2013-03-18 14:52:00,
2013-03-18 10:02:00,28.0,26.0,29.72,East,90,2.0,5.0,91,0.01,,,0.01,,2013-03-18 15:02:00,
2013-03-18 10:12:00,28.0,26.0,29.72,East,90,2.0,5.0,91,0.01,,,0.01,,2013-03-18 15:12:00,
2013-03-18 10:22:00,28.0,26.0,29.70,ESE,107,3.0,6.0,91,0.01,,,0.01,,2013-03-18 15:22:00,
2013-03-18 10:33:00,28.0,26.0,29.70,ESE,111,4.0,10.0,92,0.01,,,0.01,,2013-03-18 15:33:00,
2013-03-18 10:43:00,28.0,26.0,29.70,ESE,111,4.0,10.0,92,0.01,,,0.01,,2013-03-18 15:43:00,
2013-03-18 10:52:00,28.0,26.0,29.68,ENE,59,3.0,6.0,91,0.01,,,0.02,,2013-03-18 15:52:00,
2013-03-18 11:03:00,28.0,26.0,29.68,East,94,2.0,4.0,91,0.01,,,0.02,,2013-03-18 16:03:00,
2013-03-18 11:12:00,28.0,26.0,29.68,East,94,2.0,4.0,91,0.01,,,0.02,,2013-03-18 16:12:00,
2013-03-18 11:22:00,29.0,27.0,29.67,ESE,115,3.0,5.0,91,0.01,,,0.02,,2013-03-18 16:22:00,
2013-03-18 11:32:00,29.0,27.0,29.67,East,89,3.0,4.0,91,0.01,,,0.02,,2013-03-18 16:32:00,
2013-03-18 11:42:00,29.0,27.0,29.67,East,89,3.0,4.0,91,0.01,,,0.02,,2013-03-18 16:42:00,
2013-03-18 11:52:00,29.0,27.0,29.67,East,99,0.0,3.0,91,0.01,,,0.03,,2013-03-18 16:52:00,
2013-03-18 12:02:00,29.0,27.0,29.67,ESE,121,2.0,3.0,92,0.02,,,0.04,,2013-03-18 17:02:00,
2013-03-18 12:12:00,29.0,27.0,29.67,ESE,121,2.0,3.0,92,0.02,,,0.04,,2013-03-18 17:12:00,
2013-03-18 12:22:00,30.0,28.0,29.66,SE,125,0.0,2.0,92,0.04,,,0.06,,2013-03-18 17:22:00,
2013-03-18 12:32:00,30.0,28.0,29.66,SE,144,1.0,2.0,91,0.05,,,0.07,,2013-03-18 17:32:00,
2013-03-18 12:42:00,30.0,28.0,29.66,SE,144,1.0,2.0,91,0.05,,,0.07,,2013-03-18 17:42:00,
2013-03-18 12:52:00,31.0,29.0,29.65,South,171,1.0,3.0,91,0.04,,,0.07,,2013-03-18 17:52:00,
2013-03-18 13:02:00,31.0,28.0,29.65,SE,146,2.0,3.0,90,0.03,,,0.07,,2013-03-18 18:02:00,
2013-03-18 13:12:00,31.0,28.0,29.65,SE,146,2.0,3.0,90,0.03,,,0.07,,2013-03-18 18:12:00,
2013-03-18 13:22:00,32.0,29.0,29.62,ESE,123,2.0,2.0,90,0.01,,,0.07,,2013-03-18 18:22:00,
2013-03-18 13:32:00,32.0,29.0,29.62,SSW,213,1.0,4.0,90,0.00,,,0.07,,2013-03-18 18:32:00,
2013-03-18 13:42:00,32.0,29.0,29.62,SSW,213,1.0,4.0,90,0.00,,,0.07,,2013-03-18 18:42:00,
2013-03-18 13:52:00,32.0,29.0,29.62,SE,146,1.0,3.0,89,0.01,,,0.08,,2013-03-18 18:52:00,
2013-03-18 14:02:00,32.0,29.0,29.62,South,176,0.0,3.0,89,0.01,,,0.08,,2013-03-18 19:02:00,
2013-03-18 14:12:00,32.0,29.0,29.62,South,176,0.0,3.0,89,0.01,,,0.08,,2013-03-18 19:12:00,
2013-03-18 14:22:00,31.0,29.0,29.59,WSW,240,0.0,3.0,91,0.01,,,0.08,,2013-03-18 19:22:00,
2013-03-18 14:32:00,32.0,30.0,29.59,WSW,240,2.0,3.0,92,0.01,,,0.08,,2013-03-18 19:32:00,
2013-03-18 14:42:00,32.0,30.0,29.59,WSW,240,2.0,3.0,92,0.01,,,0.08,,2013-03-18 19:42:00,
2013-03-18 14:52:00,31.0,29.0,29.59,WSW,246,2.0,4.0,93,0.01,,,0.09,,2013-03-18 19:52:00,
2013-03-18 15:02:00,31.0,29.0,29.59,WSW,247,4.0,4.0,93,0.01,,,0.09,,2013-03-18 20:02:00,
2013-03-18 15:12:00,31.0,29.0,29.59,WSW,247,4.0,4.0,93,0.01,,,0.09,,2013-03-18 20:12:00,
2013-03-18 15:22:00,32.0,30.0,29.57,SW,223,4.0,5.0,94,0.03,,,0.11,,2013-03-18 20:22:00,
2013-03-18 15:32:00,31.0,29.0,29.57,WSW,248,5.0,8.0,94,0.03,,,0.11,,2013-03-18 20:32:00,
2013-03-18 15:42:00,31.0,29.0,29.57,WSW,248,5.0,8.0,94,0.03,,,0.11,,2013-03-18 20:42:00,
2013-03-18 15:52:00,31.0,29.0,29.57,WSW,244,7.0,8.0,94,0.02,,,0.11,,2013-03-18 20:52:00,
2013-03-18 16:02:00,31.0,29.0,29.57,SW,224,4.0,8.0,94,0.02,,,0.11,,2013-03-18 21:02:00,
2013-03-18 16:12:00,31.0,29.0,29.57,SW,224,4.0,8.0,94,0.02,,,0.11,,2013-03-18 21:12:00,
2013-03-18 16:22:00,31.0,29.0,29.57,West,259,7.0,10.0,92,0.00,,,0.11,,2013-03-18 21:22:00,
2013-03-18 16:32:00,31.0,28.0,29.57,WSW,243,10.0,10.0,90,0.00,,,0.11,,2013-03-18 21:32:00,
2013-03-18 16:42:00,31.0,28.0,29.57,WSW,243,10.0,10.0,90,0.00,,,0.11,,2013-03-18 21:42:00,
2013-03-18 16:53:00,32.0,29.0,29.57,SW,229,8.0,11.0,90,0.00,,,0.11,,2013-03-18 21:53:00,
2013-03-18 17:03:00,31.0,29.0,29.57,West,268,9.0,12.0,91,0.00,,,0.11,,2013-03-18 22:03:00,
2013-03-18 17:13:00,31.0,29.0,29.57,West,268,9.0,12.0,91,0.00,,,0.11,,2013-03-18 22:13:00,
2013-03-18 17:23:00,31.0,29.0,29.57,WSW,247,10.0,13.0,93,0.00,,,0.11,,2013-03-18 22:23:00,
2013-03-18 17:33:00,31.0,29.0,29.57,West,261,9.0,12.0,93,0.00,,,0.11,,2013-03-18 22:33:00,
2013-03-18 17:42:00,31.0,29.0,29.57,West,261,9.0,12.0,93,0.00,,,0.11,,2013-03-18 22:42:00,
2013-03-18 17:52:00,31.0,29.0,29.57,WSW,248,6.0,10.0,94,0.00,,,0.11,,2013-03-18 22:52:00,
2013-03-18 18:02:00,31.0,29.0,29.57,WSW,254,10.0,10.0,93,0.00,,,0.11,,2013-03-18 23:02:00,
2013-03-18 18:12:00,31.0,29.0,29.57,WSW,254,10.0,10.0,93,0.00,,,0.11,,2013-03-18 23:12:00,
2013-03-18 18:22:00,31.0,29.0,29.57,West,277,9.0,10.0,92,0.00,,,0.11,,2013-03-18 23:22:00,
2013-03-18 18:32:00,31.0,29.0,29.57,West,259,7.0,11.0,92,0.00,,,0.11,,2013-03-18 23:32:00,
2013-03-18 18:42:00,31.0,29.0,29.57,West,259,7.0,11.0,92,0.00,,,0.11,,2013-03-18 23:42:00,
2013-03-18 18:53:00,31.0,29.0,29.57,West,281,9.0,11.0,92,0.00,,,0.11,,2013-03-18 23:53:00,
2013-03-18 19:02:00,31.0,29.0,29.57,WSW,258,8.0,14.0,92,0.00,,,0.11,,2013-03-19 00:02:00,
2013-03-18 19:12:00,31.0,29.0,29.57,WSW,258,8.0,14.0,92,0.00,,,0.11,,2013-03-19 00:12:00,
2013-03-18 19:22:00,31.0,29.0,29.57,West,264,17.0,23.0,92,0.00,,,0.11,,2013-03-19 00:22:00,
2013-03-18 19:32:00,29.0,27.0,29.58,West,263,18.0,24.0,93,0.00,,,0.11,,2013-03-19 00:32:00,
2013-03-18 19:42:00,29.0,27.0,29.58,West,263,18.0,24.0,93,0.00,,,0.11,,2013-03-19 00:42:00,
2013-03-18 19:52:00,28.0,26.0,29.59,WSW,256,17.0,19.0,93,0.00,,,0.11,,2013-03-19 00:52:00,
2013-03-18 20:02:00,27.0,25.0,29.60,West,279,17.0,20.0,91,0.00,,,0.11,,2013-03-19 01:02:00,
2013-03-18 20:12:00,27.0,25.0,29.60,West,279,17.0,20.0,91,0.00,,,0.11,,2013-03-19 01:12:00,
2013-03-18 20:22:00,26.0,23.0,29.62,West,264,12.0,20.0,90,0.00,,,0.11,,2013-03-19 01:22:00,
2013-03-18 20:32:00,24.0,21.0,29.63,West,269,10.0,18.0,88,0.00,,,0.11,,2013-03-19 01:32:00,
2013-03-18 20:42:00,24.0,21.0,29.63,West,269,10.0,18.0,88,0.00,,,0.11,,2013-03-19 01:42:00,
2013-03-18 20:52:00,24.0,19.0,29.63,NW,315,12.0,17.0,81,0.00,,,0.11,,2013-03-19 01:52:00,
2013-03-18 21:02:00,23.0,17.0,29.65,West,268,13.0,19.0,76,0.00,,,0.11,,2013-03-19 02:02:00,
2013-03-18 21:12:00,23.0,17.0,29.65,West,268,13.0,19.0,76,0.00,,,0.11,,2013-03-19 02:12:00,
2013-03-18 21:22:00,23.0,16.0,29.65,WSW,257,10.0,26.0,74,0.00,,,0.11,,2013-03-19 02:22:00,
2013-03-18 21:32:00,22.0,14.0,29.67,West,267,14.0,25.0,71,0.00,,,0.11,,2013-03-19 02:32:00,
2013-03-18 21:42:00,22.0,14.0,29.67,West,267,14.0,25.0,71,0.00,,,0.11,,2013-03-19 02:42:00,
2013-03-18 21:52:00,22.0,14.0,29.67,WSW,244,17.0,20.0,72,0.00,,,0.11,,2013-03-19 02:52:00,
2013-03-18 22:02:00,20.0,11.0,29.68,West,275,11.0,21.0,69,0.00,,,0.11,,2013-03-19 03:02:00,
2013-03-18 22:12:00,20.0,11.0,29.68,West,275,11.0,21.0,69,0.00,,,0.11,,2013-03-19 03:12:00,
2013-03-18 22:22:00,20.0,11.0,29.68,WNW,287,14.0,26.0,69,0.00,,,0.11,,2013-03-19 03:22:00,
2013-03-18 22:32:00,19.0,11.0,29.69,West,277,13.0,18.0,69,0.00,,,0.11,,2013-03-19 03:32:00,
2013-03-18 22:43:00,19.0,11.0,29.69,West,277,13.0,18.0,69,0.00,,,0.11,,2013-03-19 03:43:00,
2013-03-18 22:53:00,19.0,11.0,29.69,WNW,290,11.0,20.0,69,0.00,,,0.11,,2013-03-19 03:53:00,
2013-03-18 23:03:00,18.0,10.0,29.69,West,278,13.0,21.0,69,0.00,,,0.11,,2013-03-19 04:03:00,
2013-03-18 23:13:00,18.0,10.0,29.69,West,278,13.0,21.0,69,0.00,,,0.11,,2013-03-19 04:13:00,
2013-03-18 23:23:00,18.0,10.0,29.69,West,277,14.0,23.0,69,0.00,,,0.11,,2013-03-19 04:23:00,
2013-03-18 23:33:00,18.0,9.0,29.70,West,265,12.0,20.0,67,0.00,,,0.11,,2013-03-19 04:33:00,
2013-03-18 23:43:00,18.0,9.0,29.70,West,265,12.0,20.0,67,0.00,,,0.11,,2013-03-19 04:43:00,
2013-03-18 23:52:00,18.0,9.0,29.70,West,265,15.0,18.0,68,0.00,,,0.11,,2013-03-19 04:52:00,